createdAt,value
2018-08-11T00:00:28.279Z,989.91
2018-08-11T00:01:28.230Z,989.90
2018-08-11T00:03:21.048Z,989.89
2018-08-11T00:04:20.969Z,989.86
2018-08-11T00:06:13.759Z,989.83
2018-08-11T00:07:13.709Z,989.83
2018-08-11T00:09:06.529Z,989.83
2018-08-11T00:10:06.450Z,989.84
2018-08-11T00:11:59.237Z,989.83
2018-08-11T00:12:59.193Z,989.82
2018-08-11T00:14:52.014Z,989.77
2018-08-11T00:15:51.934Z,989.77
2018-08-11T00:17:44.728Z,989.71
2018-08-11T00:18:44.672Z,989.75
2018-08-11T00:20:37.494Z,989.81
2018-08-11T00:21:37.414Z,989.80
2018-08-11T00:23:30.205Z,989.75
2018-08-11T00:24:30.158Z,989.78
2018-08-11T00:26:22.980Z,989.78
2018-08-11T00:27:22.899Z,989.79
2018-08-11T00:29:15.689Z,989.87
2018-08-11T00:30:15.642Z,989.89
2018-08-11T00:32:08.462Z,989.88
2018-08-11T00:33:08.386Z,989.91
2018-08-11T00:35:01.170Z,989.94
2018-08-11T00:36:01.121Z,989.94
2018-08-11T00:37:53.943Z,989.93
2018-08-11T00:38:53.864Z,989.93
2018-08-11T00:40:46.654Z,989.90
2018-08-11T00:41:46.606Z,989.94
2018-08-11T00:43:39.427Z,989.93
2018-08-11T00:44:39.347Z,989.95
2018-08-11T00:46:32.138Z,989.94
2018-08-11T00:47:32.090Z,989.92
2018-08-11T00:49:24.920Z,989.87
2018-08-11T00:50:24.827Z,989.86
2018-08-11T00:52:17.619Z,989.87
2018-08-11T00:53:17.570Z,989.89
2018-08-11T00:55:10.390Z,989.88
2018-08-11T00:56:10.310Z,989.90
2018-08-11T00:58:03.102Z,989.91
2018-08-11T00:59:03.049Z,989.92
2018-08-11T01:00:55.872Z,989.90
2018-08-11T01:01:55.788Z,989.90
2018-08-11T01:03:48.582Z,989.95
2018-08-11T01:04:48.532Z,989.94
2018-08-11T01:06:41.352Z,989.94
2018-08-11T01:07:41.271Z,989.96
2018-08-11T01:09:34.065Z,989.95
2018-08-11T01:10:34.013Z,989.98
2018-08-11T01:12:26.829Z,990.00
2018-08-11T01:13:26.752Z,989.99
2018-08-11T01:15:19.542Z,990.00
2018-08-11T01:16:19.491Z,989.99
2018-08-11T01:18:12.311Z,989.94
2018-08-11T01:19:12.231Z,990.02
2018-08-11T01:21:05.020Z,990.03
2018-08-11T01:22:04.971Z,990.06
2018-08-11T01:23:57.792Z,990.04
2018-08-11T01:24:57.712Z,990.03
2018-08-11T01:26:50.498Z,990.10
2018-08-11T01:27:50.449Z,990.08
2018-08-11T01:29:43.269Z,990.12
2018-08-11T01:30:43.189Z,990.11
2018-08-11T01:32:35.978Z,990.11
2018-08-11T01:33:35.929Z,990.11
2018-08-11T01:35:28.757Z,990.08
2018-08-11T01:36:28.677Z,990.08
2018-08-11T01:38:21.459Z,990.08
2018-08-11T01:39:21.410Z,990.10
2018-08-11T01:41:14.230Z,990.07
2018-08-11T01:42:14.156Z,990.06
2018-08-11T01:44:06.967Z,990.11
2018-08-11T01:45:06.889Z,990.09
2018-08-11T01:46:59.709Z,990.06
2018-08-11T01:47:59.631Z,990.06
2018-08-11T01:49:52.418Z,990.09
2018-08-11T01:50:52.369Z,990.08
2018-08-11T01:52:45.191Z,990.13
2018-08-11T01:53:45.108Z,990.14
2018-08-11T01:55:37.896Z,990.14
2018-08-11T01:56:37.849Z,990.19
2018-08-11T01:58:30.670Z,990.17
2018-08-11T01:59:30.591Z,990.17
2018-08-11T02:01:23.383Z,990.14
2018-08-11T02:02:23.332Z,990.17
2018-08-11T02:04:16.158Z,990.13
2018-08-11T02:05:16.075Z,990.11
2018-08-11T02:07:08.864Z,990.09
2018-08-11T02:08:08.814Z,990.08
2018-08-11T02:10:01.635Z,990.05
2018-08-11T02:11:01.556Z,990.04
2018-08-11T02:12:54.346Z,990.08
2018-08-11T02:13:54.296Z,990.11
2018-08-11T02:15:47.119Z,990.11
2018-08-11T02:16:47.041Z,990.15
2018-08-11T02:18:39.828Z,990.14
2018-08-11T02:19:39.779Z,990.16
2018-08-11T02:21:32.596Z,990.12
2018-08-11T02:22:32.518Z,990.14
2018-08-11T02:24:25.310Z,990.14
2018-08-11T02:25:25.263Z,990.17
2018-08-11T02:27:18.078Z,990.19
2018-08-11T02:28:17.997Z,990.18
2018-08-11T02:30:10.787Z,990.20
2018-08-11T02:31:10.750Z,990.20
2018-08-11T02:33:03.558Z,990.18
2018-08-11T02:34:03.477Z,990.23
2018-08-11T02:35:56.265Z,990.24
2018-08-11T02:36:56.215Z,990.20
2018-08-11T02:38:49.039Z,990.19
2018-08-11T02:39:48.955Z,990.20
2018-08-11T02:41:41.745Z,990.22
2018-08-11T02:42:41.697Z,990.23
2018-08-11T02:44:34.514Z,990.20
2018-08-11T02:45:34.435Z,990.19
2018-08-11T02:47:27.221Z,990.21
2018-08-11T02:48:27.172Z,990.17
2018-08-11T02:50:19.995Z,990.14
2018-08-11T02:51:19.913Z,990.19
2018-08-11T02:53:12.698Z,990.21
2018-08-11T02:54:12.647Z,990.22
2018-08-11T02:56:05.467Z,990.20
2018-08-11T02:57:05.385Z,990.21
2018-08-11T02:58:58.174Z,990.21
2018-08-11T02:59:58.126Z,990.17
2018-08-11T03:01:50.960Z,990.17
2018-08-11T03:02:50.866Z,990.16
2018-08-11T03:04:43.662Z,990.19
2018-08-11T03:05:43.614Z,990.17
2018-08-11T03:07:36.442Z,990.19
2018-08-11T03:08:36.352Z,990.19
2018-08-11T03:10:29.139Z,990.18
2018-08-11T03:11:29.089Z,990.16
2018-08-11T03:13:21.906Z,990.20
2018-08-11T03:14:21.835Z,990.21
2018-08-11T03:16:14.614Z,990.22
2018-08-11T03:17:14.566Z,990.27
2018-08-11T03:19:07.390Z,990.26
2018-08-11T03:20:07.305Z,990.27
2018-08-11T03:22:00.094Z,990.28
2018-08-11T03:23:00.045Z,990.27
2018-08-11T03:24:52.863Z,990.28
2018-08-11T03:25:52.783Z,990.27
2018-08-11T03:27:45.575Z,990.28
2018-08-11T03:28:45.524Z,990.28
2018-08-11T03:30:38.362Z,990.25
2018-08-11T03:31:38.268Z,990.26
2018-08-11T03:33:31.054Z,990.27
2018-08-11T03:34:31.003Z,990.29
2018-08-11T03:36:23.841Z,990.27
2018-08-11T03:37:23.745Z,990.31
2018-08-11T03:39:16.534Z,990.28
2018-08-11T03:40:16.483Z,990.30
2018-08-11T03:42:09.300Z,990.33
2018-08-11T03:43:09.222Z,990.34
2018-08-11T03:45:02.010Z,990.35
2018-08-11T03:46:02.045Z,990.40
2018-08-11T03:47:54.775Z,990.41
2018-08-11T03:48:54.696Z,990.39
2018-08-11T03:50:47.484Z,990.40
2018-08-11T03:51:47.435Z,990.42
2018-08-11T03:53:40.253Z,990.45
2018-08-11T03:54:40.172Z,990.46
2018-08-11T03:56:32.960Z,990.40
2018-08-11T03:57:32.915Z,990.45
2018-08-11T03:59:25.729Z,990.42
2018-08-11T04:00:25.652Z,990.44
2018-08-11T04:02:18.441Z,990.45
2018-08-11T04:03:18.392Z,990.51
2018-08-11T04:05:11.212Z,990.51
2018-08-11T04:06:11.132Z,990.54
2018-08-11T04:08:03.920Z,990.58
2018-08-11T04:09:03.870Z,990.54
2018-08-11T04:10:56.689Z,990.58
2018-08-11T04:11:56.608Z,990.61
2018-08-11T04:13:49.398Z,990.60
2018-08-11T04:14:49.356Z,990.58
2018-08-11T04:16:42.167Z,990.61
2018-08-11T04:17:42.093Z,990.62
2018-08-11T04:19:34.877Z,990.64
2018-08-11T04:20:34.828Z,990.63
2018-08-11T04:22:27.647Z,990.63
2018-08-11T04:23:27.564Z,990.62
2018-08-11T04:25:20.355Z,990.61
2018-08-11T04:26:20.304Z,990.68
2018-08-11T04:28:13.126Z,990.71
2018-08-11T04:29:13.051Z,990.72
2018-08-11T04:31:05.835Z,990.73
2018-08-11T04:32:05.785Z,990.75
2018-08-11T04:33:58.602Z,990.72
2018-08-11T04:34:58.521Z,990.72
2018-08-11T04:36:51.307Z,990.79
2018-08-11T04:37:51.261Z,990.79
2018-08-11T04:39:44.075Z,990.80
2018-08-11T04:40:43.995Z,990.79
2018-08-11T04:42:36.786Z,990.79
2018-08-11T04:43:36.735Z,990.79
2018-08-11T04:45:29.555Z,990.79
2018-08-11T04:46:29.472Z,990.78
2018-08-11T04:48:22.262Z,990.82
2018-08-11T04:49:22.214Z,990.82
2018-08-11T04:51:15.032Z,990.82
2018-08-11T04:52:14.953Z,990.83
2018-08-11T04:54:08.360Z,990.85
2018-08-11T04:55:07.692Z,990.85
2018-08-11T04:57:00.512Z,990.86
2018-08-11T04:58:00.432Z,990.79
2018-08-11T04:59:53.218Z,990.80
2018-08-11T05:00:53.194Z,990.83
2018-08-11T05:02:45.988Z,990.86
2018-08-11T05:03:45.908Z,990.88
2018-08-11T05:05:38.694Z,990.90
2018-08-11T05:06:38.644Z,990.88
2018-08-11T05:08:31.464Z,990.96
2018-08-11T05:09:31.385Z,990.94
2018-08-11T05:11:24.177Z,990.97
2018-08-11T05:12:24.122Z,990.98
2018-08-11T05:14:16.939Z,991.04
2018-08-11T05:15:16.860Z,991.05
2018-08-11T05:17:09.646Z,991.06
2018-08-11T05:18:09.595Z,991.09
2018-08-11T05:20:02.415Z,991.09
2018-08-11T05:21:02.337Z,991.16
2018-08-11T05:22:55.124Z,991.16
2018-08-11T05:23:55.075Z,991.17
2018-08-11T05:25:47.893Z,991.17
2018-08-11T05:26:47.813Z,991.19
2018-08-11T05:28:40.602Z,991.22
2018-08-11T05:29:40.554Z,991.21
2018-08-11T05:31:33.372Z,991.23
2018-08-11T05:32:33.293Z,991.23
2018-08-11T05:34:26.079Z,991.26
2018-08-11T05:35:26.030Z,991.28
2018-08-11T05:37:18.849Z,991.29
2018-08-11T05:38:18.769Z,991.31
2018-08-11T05:40:11.555Z,991.34
2018-08-11T05:41:11.505Z,991.35
2018-08-11T05:43:04.320Z,991.37
2018-08-11T05:44:04.240Z,991.34
2018-08-11T05:45:57.031Z,991.35
2018-08-11T05:46:56.977Z,991.37
2018-08-11T05:48:49.797Z,991.35
2018-08-11T05:49:49.719Z,991.37
2018-08-11T05:51:42.507Z,991.40
2018-08-11T05:52:42.458Z,991.30
2018-08-11T05:54:35.279Z,991.33
2018-08-11T05:55:35.199Z,991.32
2018-08-11T05:57:27.987Z,991.34
2018-08-11T05:58:27.942Z,991.35
2018-08-11T06:00:20.754Z,991.35
2018-08-11T06:01:20.674Z,991.33
2018-08-11T06:03:13.461Z,991.40
2018-08-11T06:04:13.410Z,991.37
2018-08-11T06:06:06.228Z,991.41
2018-08-11T06:07:06.149Z,991.40
2018-08-11T06:08:58.937Z,991.43
2018-08-11T06:09:58.886Z,991.41
2018-08-11T06:11:51.722Z,991.42
2018-08-11T06:12:51.626Z,991.41
2018-08-11T06:14:44.413Z,991.44
2018-08-11T06:15:44.365Z,991.37
2018-08-11T06:17:37.183Z,991.39
2018-08-11T06:18:37.103Z,991.40
2018-08-11T06:20:29.895Z,991.41
2018-08-11T06:21:29.868Z,991.43
2018-08-11T06:23:22.661Z,991.43
2018-08-11T06:24:22.580Z,991.49
2018-08-11T06:26:15.369Z,991.46
2018-08-11T06:27:15.318Z,991.47
2018-08-11T06:29:08.139Z,991.48
2018-08-11T06:30:08.059Z,991.49
2018-08-11T06:32:00.903Z,991.52
2018-08-11T06:33:00.797Z,991.48
2018-08-11T06:34:53.652Z,991.47
2018-08-11T06:35:53.538Z,991.43
2018-08-11T06:37:46.327Z,991.41
2018-08-11T06:38:46.273Z,991.44
2018-08-11T06:40:39.104Z,991.38
2018-08-11T06:41:39.015Z,991.42
2018-08-11T06:43:31.815Z,991.36
2018-08-11T06:44:31.753Z,991.36
2018-08-11T06:46:24.573Z,991.33
2018-08-11T06:47:24.494Z,991.29
2018-08-11T06:49:17.283Z,991.33
2018-08-11T06:50:17.233Z,991.29
2018-08-11T06:52:10.055Z,991.32
2018-08-11T06:53:09.974Z,991.31
2018-08-11T06:55:02.761Z,991.32
2018-08-11T06:56:02.711Z,991.31
2018-08-11T06:57:55.528Z,991.33
2018-08-11T06:58:55.449Z,991.35
2018-08-11T07:00:48.238Z,991.35
2018-08-11T07:01:48.190Z,991.34
2018-08-11T07:03:41.023Z,991.37
2018-08-11T07:04:40.927Z,991.35
2018-08-11T07:06:33.786Z,991.31
2018-08-11T07:07:33.662Z,991.28
2018-08-11T07:09:26.487Z,991.34
2018-08-11T07:10:26.400Z,991.35
2018-08-11T07:12:19.189Z,991.31
2018-08-11T07:13:19.140Z,991.33
2018-08-11T07:15:11.958Z,991.36
2018-08-11T07:16:11.880Z,991.35
2018-08-11T07:18:04.667Z,991.30
2018-08-11T07:19:04.618Z,991.32
2018-08-11T07:20:57.955Z,991.34
2018-08-11T07:21:57.353Z,991.33
2018-08-11T07:23:50.145Z,991.37
2018-08-11T07:24:50.094Z,991.30
2018-08-11T07:26:42.913Z,991.29
2018-08-11T07:27:42.836Z,991.27
2018-08-11T07:29:35.623Z,991.27
2018-08-11T07:30:35.574Z,991.25
2018-08-11T07:32:28.395Z,991.31
2018-08-11T07:33:28.314Z,991.26
2018-08-11T07:35:21.113Z,991.25
2018-08-11T07:36:21.194Z,991.27
2018-08-11T07:38:13.872Z,991.30
2018-08-11T07:39:13.794Z,991.27
2018-08-11T07:41:06.583Z,991.19
2018-08-11T07:42:06.536Z,991.22
2018-08-11T07:43:59.371Z,991.21
2018-08-11T07:44:59.275Z,991.20
2018-08-11T07:46:52.061Z,991.20
2018-08-11T07:47:52.013Z,991.20
2018-08-11T07:49:44.831Z,991.21
2018-08-11T07:50:44.751Z,991.24
2018-08-11T07:52:37.541Z,991.19
2018-08-11T07:53:37.491Z,991.23
2018-08-11T07:55:30.308Z,991.22
2018-08-11T07:56:30.230Z,991.23
2018-08-11T07:58:23.020Z,991.23
2018-08-11T07:59:22.969Z,991.18
2018-08-11T08:01:15.800Z,991.17
2018-08-11T08:02:15.711Z,991.17
2018-08-11T08:04:08.501Z,991.22
2018-08-11T08:05:08.452Z,991.20
2018-08-11T08:07:01.280Z,991.18
2018-08-11T08:08:01.278Z,991.14
2018-08-11T08:09:53.989Z,991.15
2018-08-11T08:10:53.940Z,991.12
2018-08-11T08:12:46.760Z,991.13
2018-08-11T08:13:46.690Z,991.16
2018-08-11T08:15:39.469Z,991.20
2018-08-11T08:16:39.420Z,991.18
2018-08-11T08:18:32.238Z,991.17
2018-08-11T08:19:32.159Z,991.18
2018-08-11T08:21:24.952Z,991.19
2018-08-11T08:22:24.903Z,991.16
2018-08-11T08:24:17.727Z,991.16
2018-08-11T08:25:17.649Z,991.17
2018-08-11T08:27:10.438Z,991.17
2018-08-11T08:28:10.389Z,991.16
2018-08-11T08:30:03.213Z,991.11
2018-08-11T08:31:03.131Z,991.15
2018-08-11T08:32:55.921Z,991.10
2018-08-11T08:33:55.942Z,991.13
2018-08-11T08:35:48.693Z,991.18
2018-08-11T08:36:48.614Z,991.16
2018-08-11T08:38:41.405Z,991.19
2018-08-11T08:39:41.357Z,991.15
2018-08-11T08:41:34.176Z,991.16
2018-08-11T08:42:34.097Z,991.13
2018-08-11T08:44:26.887Z,991.10
2018-08-11T08:45:26.840Z,991.15
2018-08-11T08:47:19.706Z,991.11
2018-08-11T08:48:19.581Z,991.17
2018-08-11T08:50:12.373Z,991.15
2018-08-11T08:51:12.323Z,991.12
2018-08-11T08:53:05.146Z,991.10
2018-08-11T08:54:05.067Z,991.16
2018-08-11T08:55:57.853Z,991.15
2018-08-11T08:56:57.804Z,991.14
2018-08-11T08:58:50.626Z,991.19
2018-08-11T08:59:50.545Z,991.17
2018-08-11T09:01:43.337Z,991.19
2018-08-11T09:02:43.288Z,991.16
2018-08-11T09:04:36.108Z,991.18
2018-08-11T09:05:36.064Z,991.13
2018-08-11T09:07:28.865Z,991.13
2018-08-11T09:08:28.770Z,991.15
2018-08-11T09:10:21.594Z,991.13
2018-08-11T09:11:21.513Z,991.12
2018-08-11T09:13:14.304Z,991.11
2018-08-11T09:14:14.254Z,991.15
2018-08-11T09:16:07.072Z,991.10
2018-08-11T09:17:06.993Z,991.14
2018-08-11T09:18:59.782Z,991.15
2018-08-11T09:19:59.732Z,991.15
2018-08-11T09:21:52.553Z,991.19
2018-08-11T09:22:52.473Z,991.18
2018-08-11T09:24:45.264Z,991.18
2018-08-11T09:25:45.216Z,991.16
2018-08-11T09:27:38.043Z,991.14
2018-08-11T09:28:37.957Z,991.18
2018-08-11T09:30:30.749Z,991.13
2018-08-11T09:31:30.701Z,991.21
2018-08-11T09:33:23.520Z,991.17
2018-08-11T09:34:23.440Z,991.16
2018-08-11T09:36:16.230Z,991.06
2018-08-11T09:37:16.182Z,991.07
2018-08-11T09:39:09.001Z,991.12
2018-08-11T09:40:08.923Z,991.13
2018-08-11T09:42:01.715Z,991.12
2018-08-11T09:43:01.666Z,991.19
2018-08-11T09:44:54.487Z,991.14
2018-08-11T09:45:54.445Z,991.08
2018-08-11T09:47:47.197Z,991.20
2018-08-11T09:48:47.148Z,991.20
2018-08-11T09:50:39.967Z,991.20
2018-08-11T09:51:39.890Z,991.13
2018-08-11T09:53:32.677Z,991.06
2018-08-11T09:54:32.627Z,991.06
2018-08-11T09:56:25.446Z,991.08
2018-08-11T09:57:25.368Z,991.03
2018-08-11T09:59:18.163Z,991.05
2018-08-11T10:00:18.113Z,991.01
2018-08-11T10:02:10.936Z,991.07
2018-08-11T10:03:10.857Z,991.02
2018-08-11T10:05:03.691Z,991.00
2018-08-11T10:06:03.599Z,990.99
2018-08-11T10:07:56.419Z,990.92
2018-08-11T10:08:56.349Z,990.91
2018-08-11T10:10:49.135Z,990.96
2018-08-11T10:11:49.085Z,991.03
2018-08-11T10:13:41.902Z,990.97
2018-08-11T10:14:41.824Z,990.91
2018-08-11T10:16:34.615Z,990.89
2018-08-11T10:17:34.566Z,990.91
2018-08-11T10:19:27.385Z,990.93
2018-08-11T10:20:27.309Z,990.90
2018-08-11T10:22:20.100Z,990.93
2018-08-11T10:23:20.051Z,991.02
2018-08-11T10:25:12.888Z,990.88
2018-08-11T10:26:12.791Z,990.91
2018-08-11T10:28:05.583Z,990.86
2018-08-11T10:29:05.535Z,990.89
2018-08-11T10:30:58.356Z,990.84
2018-08-11T10:31:58.279Z,990.87
2018-08-11T10:33:51.070Z,990.82
2018-08-11T10:34:51.021Z,990.87
2018-08-11T10:36:43.841Z,990.86
2018-08-11T10:37:43.763Z,990.86
2018-08-11T10:39:36.555Z,990.89
2018-08-11T10:40:36.512Z,990.85
2018-08-11T10:42:29.331Z,990.86
2018-08-11T10:43:29.250Z,990.81
2018-08-11T10:45:22.039Z,990.80
2018-08-11T10:46:21.990Z,990.82
2018-08-11T10:48:14.814Z,990.86
2018-08-11T10:49:14.734Z,990.85
2018-08-11T10:51:07.524Z,990.83
2018-08-11T10:52:07.480Z,990.83
2018-08-11T10:54:00.296Z,990.81
2018-08-11T10:55:00.215Z,990.81
2018-08-11T10:56:53.005Z,990.80
2018-08-11T10:57:52.956Z,990.82
2018-08-11T10:59:45.777Z,990.80
2018-08-11T11:00:45.698Z,990.86
2018-08-11T11:02:38.486Z,990.82
2018-08-11T11:03:38.438Z,990.82
2018-08-11T11:05:31.262Z,990.80
2018-08-11T11:06:31.181Z,990.82
2018-08-11T11:08:24.024Z,990.75
2018-08-11T11:09:23.924Z,990.75
2018-08-11T11:11:16.745Z,990.80
2018-08-11T11:12:16.665Z,990.74
2018-08-11T11:14:09.512Z,990.69
2018-08-11T11:15:09.408Z,990.69
2018-08-11T11:17:02.241Z,990.65
2018-08-11T11:18:02.152Z,990.61
2018-08-11T11:19:54.944Z,990.59
2018-08-11T11:20:54.936Z,990.55
2018-08-11T11:22:47.715Z,990.57
2018-08-11T11:23:47.634Z,990.53
2018-08-11T11:25:40.426Z,990.59
2018-08-11T11:26:40.378Z,990.57
2018-08-11T11:28:33.201Z,990.57
2018-08-11T11:29:33.130Z,990.48
2018-08-11T11:31:25.910Z,990.50
2018-08-11T11:32:25.861Z,990.46
2018-08-11T11:34:18.682Z,990.49
2018-08-11T11:35:18.605Z,990.41
2018-08-11T11:37:11.408Z,990.42
2018-08-11T11:38:11.349Z,990.34
2018-08-11T11:40:04.172Z,990.33
2018-08-11T11:41:04.088Z,990.33
2018-08-11T11:42:56.877Z,990.37
2018-08-11T11:43:56.830Z,990.34
2018-08-11T11:45:49.649Z,990.31
2018-08-11T11:46:49.574Z,990.34
2018-08-11T11:48:42.363Z,990.35
2018-08-11T11:49:42.314Z,990.36
2018-08-11T11:51:35.136Z,990.33
2018-08-11T11:52:35.059Z,990.27
2018-08-11T11:54:27.850Z,990.26
2018-08-11T11:55:27.802Z,990.28
2018-08-11T11:57:20.623Z,990.27
2018-08-11T11:58:20.545Z,990.28
2018-08-11T12:00:13.335Z,990.29
2018-08-11T12:01:13.288Z,990.21
2018-08-11T12:03:06.113Z,990.27
2018-08-11T12:04:06.030Z,990.31
2018-08-11T12:05:58.918Z,990.32
2018-08-11T12:06:58.772Z,990.29
2018-08-11T12:08:51.595Z,990.28
2018-08-11T12:09:51.517Z,990.26
2018-08-11T12:11:44.312Z,990.29
2018-08-11T12:12:44.260Z,990.21
2018-08-11T12:14:37.086Z,990.21
2018-08-11T12:15:37.000Z,990.20
2018-08-11T12:17:29.793Z,990.21
2018-08-11T12:18:29.746Z,990.22
2018-08-11T12:20:22.567Z,990.19
2018-08-11T12:21:22.491Z,990.20
2018-08-11T12:23:15.281Z,990.15
2018-08-11T12:24:15.232Z,990.14
2018-08-11T12:26:08.055Z,990.15
2018-08-11T12:27:07.975Z,990.18
2018-08-11T12:29:00.767Z,990.13
2018-08-11T12:30:00.721Z,990.09
2018-08-11T12:31:53.565Z,990.09
2018-08-11T12:32:53.459Z,990.11
2018-08-11T12:34:46.251Z,990.16
2018-08-11T12:35:46.204Z,990.15
2018-08-11T12:37:39.043Z,990.05
2018-08-11T12:38:38.946Z,990.07
2018-08-11T12:40:31.736Z,990.03
2018-08-11T12:41:31.687Z,989.95
2018-08-11T12:43:24.505Z,989.97
2018-08-11T12:44:24.425Z,990.02
2018-08-11T12:46:17.220Z,989.96
2018-08-11T12:47:17.171Z,989.92
2018-08-11T12:49:09.996Z,989.96
2018-08-11T12:50:09.914Z,989.91
2018-08-11T12:52:02.704Z,989.86
2018-08-11T12:53:02.657Z,989.84
2018-08-11T12:54:55.478Z,989.89
2018-08-11T12:55:55.399Z,989.80
2018-08-11T12:57:48.190Z,989.87
2018-08-11T12:58:48.143Z,989.89
2018-08-11T13:00:40.965Z,989.81
2018-08-11T13:01:40.906Z,989.84
2018-08-11T13:03:33.676Z,989.84
2018-08-11T13:04:33.628Z,989.79
2018-08-11T13:06:26.451Z,989.72
2018-08-11T13:07:26.373Z,989.75
2018-08-11T13:09:19.163Z,989.83
2018-08-11T13:10:19.112Z,989.73
2018-08-11T13:12:11.935Z,989.78
2018-08-11T13:13:11.858Z,989.75
2018-08-11T13:15:04.647Z,989.74
2018-08-11T13:16:04.600Z,989.68
2018-08-11T13:17:57.420Z,989.72
2018-08-11T13:18:57.344Z,989.72
2018-08-11T13:20:50.279Z,989.72
2018-08-11T13:21:50.089Z,989.75
2018-08-11T13:23:42.905Z,989.73
2018-08-11T13:24:42.826Z,989.70
2018-08-11T13:26:35.618Z,989.69
2018-08-11T13:27:35.604Z,989.66
2018-08-11T13:29:28.393Z,989.62
2018-08-11T13:30:28.312Z,989.61
2018-08-11T13:32:21.105Z,989.57
2018-08-11T13:33:21.056Z,989.63
2018-08-11T13:35:13.876Z,989.62
2018-08-11T13:36:13.801Z,989.63
2018-08-11T13:38:06.587Z,989.62
2018-08-11T13:39:06.538Z,989.65
2018-08-11T13:40:59.357Z,989.61
2018-08-11T13:41:59.280Z,989.64
2018-08-11T13:43:52.070Z,989.58
2018-08-11T13:44:52.021Z,989.56
2018-08-11T13:46:44.844Z,989.55
2018-08-11T13:47:44.761Z,989.52
2018-08-11T13:49:37.606Z,989.59
2018-08-11T13:50:37.505Z,989.56
2018-08-11T13:52:30.330Z,989.53
2018-08-11T13:53:30.250Z,989.51
2018-08-11T13:55:23.040Z,989.49
2018-08-11T13:56:22.991Z,989.48
2018-08-11T13:58:15.812Z,989.49
2018-08-11T13:59:15.732Z,989.43
2018-08-11T14:01:08.541Z,989.45
2018-08-11T14:02:08.476Z,989.54
2018-08-11T14:04:01.312Z,989.53
2018-08-11T14:05:01.217Z,989.52
2018-08-11T14:06:54.008Z,989.48
2018-08-11T14:07:53.958Z,989.50
2018-08-11T14:09:46.781Z,989.44
2018-08-11T14:10:46.702Z,989.46
2018-08-11T14:12:39.494Z,989.50
2018-08-11T14:13:39.450Z,989.48
2018-08-11T14:15:32.276Z,989.45
2018-08-11T14:16:32.190Z,989.49
2018-08-11T14:18:24.982Z,989.49
2018-08-11T14:19:24.933Z,989.54
2018-08-11T14:21:17.763Z,989.52
2018-08-11T14:22:17.676Z,989.52
2018-08-11T14:24:10.471Z,989.54
2018-08-11T14:25:10.420Z,989.55
2018-08-11T14:27:03.264Z,989.49
2018-08-11T14:28:03.165Z,989.47
2018-08-11T14:29:55.955Z,989.45
2018-08-11T14:30:55.908Z,989.47
2018-08-11T14:32:48.848Z,989.44
2018-08-11T14:33:48.651Z,989.44
2018-08-11T14:35:41.442Z,989.43
2018-08-11T14:36:41.391Z,989.42
2018-08-11T14:38:34.252Z,989.36
2018-08-11T14:39:34.135Z,989.39
2018-08-11T14:41:26.926Z,989.46
2018-08-11T14:42:26.880Z,989.46
2018-08-11T14:44:19.742Z,989.42
2018-08-11T14:45:19.621Z,989.41
2018-08-11T14:47:12.416Z,989.31
2018-08-11T14:48:12.365Z,989.32
2018-08-11T14:50:05.187Z,989.35
2018-08-11T14:51:05.110Z,989.31
2018-08-11T14:52:57.901Z,989.33
2018-08-11T14:53:57.855Z,989.29
2018-08-11T14:55:50.674Z,989.34
2018-08-11T14:56:50.597Z,989.28
2018-08-11T14:58:43.394Z,989.30
2018-08-11T14:59:43.346Z,989.31
2018-08-11T15:01:36.170Z,989.21
2018-08-11T15:02:36.090Z,989.24
2018-08-11T15:04:28.881Z,989.23
2018-08-11T15:05:28.831Z,989.21
2018-08-11T15:07:21.658Z,989.21
2018-08-11T15:08:21.575Z,989.19
2018-08-11T15:10:14.512Z,989.18
2018-08-11T15:11:14.318Z,989.12
2018-08-11T15:13:07.154Z,989.13
2018-08-11T15:14:07.058Z,989.16
2018-08-11T15:15:59.878Z,989.17
2018-08-11T15:16:59.800Z,989.18
2018-08-11T15:18:52.619Z,989.18
2018-08-11T15:19:52.540Z,989.17
2018-08-11T15:21:45.331Z,989.10
2018-08-11T15:22:45.284Z,989.09
2018-08-11T15:24:38.107Z,989.03
2018-08-11T15:25:38.030Z,989.06
2018-08-11T15:27:30.819Z,988.98
2018-08-11T15:28:30.770Z,989.01
2018-08-11T15:30:23.594Z,989.03
2018-08-11T15:31:23.514Z,989.01
2018-08-11T15:33:16.342Z,989.04
2018-08-11T15:34:16.259Z,988.99
2018-08-11T15:36:09.080Z,989.05
2018-08-11T15:37:09.004Z,989.03
2018-08-11T15:39:01.794Z,989.00
2018-08-11T15:40:01.748Z,988.99
2018-08-11T15:41:54.586Z,988.98
2018-08-11T15:42:54.490Z,989.06
2018-08-11T15:44:47.287Z,989.03
2018-08-11T15:45:47.241Z,989.01
2018-08-11T15:47:40.061Z,988.96
2018-08-11T15:48:39.979Z,988.97
2018-08-11T15:50:32.769Z,988.98
2018-08-11T15:51:32.720Z,988.91
2018-08-11T15:53:25.539Z,988.83
2018-08-11T15:54:25.467Z,988.91
2018-08-11T15:56:18.254Z,988.90
2018-08-11T15:57:18.207Z,988.85
2018-08-11T15:59:11.028Z,988.84
2018-08-11T16:00:10.950Z,988.76
2018-08-11T16:02:03.745Z,988.79
2018-08-11T16:03:03.701Z,988.77
2018-08-11T16:04:56.516Z,988.77
2018-08-11T16:05:56.438Z,988.74
2018-08-11T16:07:49.230Z,988.73
2018-08-11T16:08:49.182Z,988.76
2018-08-11T16:10:42.006Z,988.76
2018-08-11T16:11:41.927Z,988.79
2018-08-11T16:13:34.718Z,988.76
2018-08-11T16:14:34.679Z,988.77
2018-08-11T16:16:27.491Z,988.75
2018-08-11T16:17:27.412Z,988.75
2018-08-11T16:19:20.202Z,988.75
2018-08-11T16:20:20.154Z,988.78
2018-08-11T16:22:12.992Z,988.75
2018-08-11T16:23:12.898Z,988.80
2018-08-11T16:25:05.690Z,988.77
2018-08-11T16:26:05.642Z,988.77
2018-08-11T16:27:58.468Z,988.74
2018-08-11T16:28:58.386Z,988.75
2018-08-11T16:30:51.177Z,988.70
2018-08-11T16:31:51.129Z,988.69
2018-08-11T16:33:43.953Z,988.69
2018-08-11T16:34:43.876Z,988.70
2018-08-11T16:36:36.667Z,988.64
2018-08-11T16:37:36.619Z,988.64
2018-08-11T16:39:29.497Z,988.62
2018-08-11T16:40:29.365Z,988.65
2018-08-11T16:42:22.153Z,988.66
2018-08-11T16:43:22.106Z,988.65
2018-08-11T16:45:14.925Z,988.69
2018-08-11T16:46:14.846Z,988.69
2018-08-11T16:48:07.639Z,988.70
2018-08-11T16:49:07.591Z,988.69
2018-08-11T16:51:00.411Z,988.65
2018-08-11T16:52:00.334Z,988.67
2018-08-11T16:53:53.208Z,988.68
2018-08-11T16:54:53.077Z,988.69
2018-08-11T16:56:45.897Z,988.64
2018-08-11T16:57:45.819Z,988.66
2018-08-11T16:59:38.615Z,988.68
2018-08-11T17:00:38.573Z,988.70
2018-08-11T17:02:31.383Z,988.72
2018-08-11T17:03:31.305Z,988.70
2018-08-11T17:05:24.098Z,988.76
2018-08-11T17:06:24.050Z,988.81
2018-08-11T17:08:16.871Z,988.80
2018-08-11T17:09:16.793Z,988.83
2018-08-11T17:11:09.587Z,988.79
2018-08-11T17:12:09.538Z,988.82
2018-08-11T17:14:02.361Z,988.81
2018-08-11T17:15:02.283Z,988.81
2018-08-11T17:16:55.074Z,988.81
2018-08-11T17:17:55.027Z,988.79
2018-08-11T17:19:47.866Z,988.83
2018-08-11T17:20:47.825Z,988.85
2018-08-11T17:22:40.561Z,988.84
2018-08-11T17:23:40.513Z,988.87
2018-08-11T17:25:33.335Z,988.87
2018-08-11T17:26:33.255Z,988.89
2018-08-11T17:28:26.046Z,988.92
2018-08-11T17:29:25.997Z,988.86
2018-08-11T17:31:18.821Z,988.90
2018-08-11T17:32:18.743Z,988.87
2018-08-11T17:34:11.533Z,988.87
2018-08-11T17:35:11.486Z,988.88
2018-08-11T17:37:04.311Z,988.90
2018-08-11T17:38:04.231Z,988.93
2018-08-11T17:39:57.024Z,988.86
2018-08-11T17:40:56.974Z,988.91
2018-08-11T17:42:49.801Z,988.90
2018-08-11T17:43:49.715Z,988.92
2018-08-11T17:45:42.508Z,988.92
2018-08-11T17:46:42.459Z,988.96
2018-08-11T17:48:35.278Z,988.94
2018-08-11T17:49:35.203Z,988.89
2018-08-11T17:51:27.995Z,988.97
2018-08-11T17:52:27.947Z,988.96
2018-08-11T17:54:20.766Z,988.91
2018-08-11T17:55:20.723Z,989.02
2018-08-11T17:57:13.480Z,988.98